Terminal Aerodrome Forecast
Issued by NWS

Home | Current Version | Previous Version | Text Only | Print | Product List | Glossary On
Versions: 1 2 3 4 5 6 7 8 9 10 11 12 13 14 15 16 17 18 19 20 21 22 23 24 25 26
381
FTUS46 KEKA 231204 RRA
TAFCEC
TAF
KCEC 231204Z 2312/2412 00000KT P6SM OVC005
      TEMPO 2312/2316 3SM BR OVC002
     FM231600 33008KT P6SM SKC
     FM231900 34012G20KT P6SM SKC
     FM232200 34015G22KT P6SM SKC
     FM240500 35010KT P6SM OVC010=

USA.gov is the U.S. government's official web portal to all federal, state and local government web resources and services.